This is the latest recevied weather packets stored in our database for station/object KJ7BRE-1. If no packets are shown the sender has not sent any weather packets the latest 10 day(s).
| Time | Temp. | Humidity | Pressure | Rain* | Wind** | Luminosity | Snow |
|---|---|---|---|---|---|---|---|
| 1777658110 | 18.33° C | 60% | 1010.8 hPa | 0 mm | - | - | - |
| 1777657808 | 17.78° C | 62% | 1010.8 hPa | 0 mm | - | - | - |
| 1777657507 | 17.22° C | 61% | 1010.8 hPa | 0 mm | - | - | - |
| 1777657206 | 17.78° C | 60% | 1010.8 hPa | 0 mm | - | - | - |
| 1777656905 | 17.78° C | 61% | 1010.8 hPa | 0 mm | - | - | - |
| 1777656604 | 17.78° C | 59% | 1010.8 hPa | 0 mm | - | - | - |
| 1777656302 | 17.78° C | 60% | 1011.2 hPa | 0 mm | - | - | - |
| 1777656001 | 17.22° C | 61% | 1010.8 hPa | 0 mm | - | - | - |
| 1777655700 | 16.67° C | 64% | 1010.8 hPa | 0 mm | - | - | - |
| 1777655399 | 17.22° C | 62% | 1010.8 hPa | 0 mm | - | - | - |
| 1777655097 | 16.67° C | 65% | 1011.2 hPa | 0 mm | - | - | - |
| 1777654796 | 16.11° C | 66% | 1010.8 hPa | 0 mm | - | - | - |
| 1777654495 | 16.67° C | 65% | 1010.8 hPa | 0 mm | - | - | - |
| 1777654194 | 16.11° C | 67% | 1010.8 hPa | 0 mm | - | - | - |
| 1777653893 | 15.56° C | 68% | 1011.2 hPa | 0 mm | - | - | - |
| 1777653591 | 15.56° C | 68% | 1011.2 hPa | 0 mm | - | - | - |
| 1777653290 | 15.56° C | 69% | 1011.2 hPa | 0 mm | - | - | - |
| 1777652989 | 15° C | 69% | 1011.2 hPa | 0 mm | - | - | - |
| 1777652688 | 15° C | 69% | 1011.2 hPa | 0 mm | - | - | - |
| 1777652386 | 15.56° C | 68% | 1011.2 hPa | 0 mm | - | - | - |
| 1777652085 | 15.56° C | 68% | 1011.2 hPa | 0 mm | - | - | - |
| 1777651784 | 15° C | 69% | 1011.2 hPa | 0 mm | - | - | - |
| 1777651483 | 15.56° C | 68% | 1011.5 hPa | 0 mm | - | - | - |
| 1777651181 | 15.56° C | 68% | 1011.2 hPa | 0 mm | - | - | - |
| 1777650880 | 15.56° C | 67% | 1011.2 hPa | 0 mm | - | - | - |
* Rain latest hour (hover to see other rain measurements)
** Current wind speed in m/s (hover to see current wind gust speed)